Time;durP1;ratioP1;P1;durP2;ratioP2;P2;SDS_P1;SDS_P2;PMS_P1;PMS_P2;Temp;Humidity;BMP_temperature;BMP_pressure;BME280_temperature;BME280_humidity;BME280_pressure;Samples;Min_cycle;Max_cycle;Signal;HPM_P1;HPM_P2
2023/02/21 02:18:32;;;;;;;;;;;17.20;50.70;;;;;;10123379;28;968;-76
2023/02/21 02:23:27;;;;;;;;;;;17.20;50.70;;;;;;10123844;28;773;-75
2023/02/21 02:28:22;;;;;;;;;;;17.20;50.70;;;;;;10124912;28;872;-75
2023/02/21 02:33:20;;;;;;;;;;;17.20;50.80;;;;;;10124067;28;1899;-75
2023/02/21 02:38:15;;;;;;;;;;;17.20;50.70;;;;;;10123327;28;969;-75
2023/02/21 02:43:11;;;;;;;;;;;17.20;50.70;;;;;;10121863;28;1440;-75
2023/02/21 02:48:06;;;;;;;;;;;17.20;50.70;;;;;;10123140;28;770;-76
2023/02/21 02:53:02;;;;;;;;;;;17.20;50.70;;;;;;10122944;28;1981;-75
2023/02/21 02:57:57;;;;;;;;;;;17.20;50.70;;;;;;10123370;28;857;-75
2023/02/21 03:02:53;;;;;;;;;;;17.20;50.70;;;;;;10123190;28;858;-75
2023/02/21 03:07:48;;;;;;;;;;;17.20;50.70;;;;;;10123141;28;757;-75
2023/02/21 03:12:44;;;;;;;;;;;17.20;50.70;;;;;;10122689;28;1961;-75
2023/02/21 03:17:39;;;;;;;;;;;17.20;50.80;;;;;;10122759;28;790;-76
2023/02/21 03:22:34;;;;;;;;;;;17.20;50.70;;;;;;10122060;28;797;-75
2023/02/21 03:27:30;;;;;;;;;;;17.20;50.70;;;;;;10121322;28;870;-75
2023/02/21 03:37:20;;;;;;;;;;;17.20;50.70;;;;;;10121600;28;831;-75
2023/02/21 03:42:16;;;;;;;;;;;17.20;50.70;;;;;;10121688;28;1275;-75
2023/02/21 03:47:11;;;;;;;;;;;17.20;50.80;;;;;;10120732;28;853;-76
2023/02/21 03:52:08;;;;;;;;;;;17.20;50.70;;;;;;10120839;28;869;-75
2023/02/21 03:57:04;;;;;;;;;;;17.20;50.70;;;;;;10120825;28;1902;-76
2023/02/21 04:01:59;;;;;;;;;;;17.20;50.70;;;;;;10120201;28;1217;-76
2023/02/21 04:06:54;;;;;;;;;;;17.20;50.80;;;;;;10120612;28;869;-75
2023/02/21 04:11:50;;;;;;;;;;;17.20;50.80;;;;;;10121085;28;799;-76
2023/02/21 04:16:45;;;;;;;;;;;17.20;50.80;;;;;;10120547;28;1898;-76
2023/02/21 04:21:40;;;;;;;;;;;17.20;50.70;;;;;;10120234;28;786;-75
2023/02/21 04:26:36;;;;;;;;;;;17.20;50.80;;;;;;10120630;28;806;-76
2023/02/21 04:31:31;;;;;;;;;;;17.20;50.80;;;;;;10119899;28;871;-75
2023/02/21 04:36:27;;;;;;;;;;;17.20;50.80;;;;;;10119777;28;1895;-75
2023/02/21 04:41:22;;;;;;;;;;;17.20;50.70;;;;;;10119783;28;1246;-76
2023/02/21 04:46:17;;;;;;;;;;;17.20;50.70;;;;;;10120181;28;873;-75
2023/02/21 04:51:13;;;;;;;;;;;17.20;50.70;;;;;;10118829;28;862;-76
2023/02/21 04:56:09;;;;;;;;;;;17.20;50.70;;;;;;10119179;28;1969;-76
2023/02/21 05:01:05;;;;;;;;;;;17.20;50.70;;;;;;10119979;28;875;-75
2023/02/21 05:06:00;;;;;;;;;;;17.20;50.70;;;;;;10117555;28;881;-76
2023/02/21 05:10:55;;;;;;;;;;;17.20;50.70;;;;;;10119390;28;866;-76
2023/02/21 05:15:51;;;;;;;;;;;17.20;50.70;;;;;;10118695;28;1899;-76
2023/02/21 05:20:46;;;;;;;;;;;17.20;50.70;;;;;;10118665;28;788;-76
2023/02/21 05:25:41;;;;;;;;;;;17.20;50.70;;;;;;10119743;28;842;-76
2023/02/21 05:30:37;;;;;;;;;;;17.30;50.60;;;;;;10118970;28;1010;-75
2023/02/21 05:35:32;;;;;;;;;;;17.30;50.60;;;;;;10117629;28;1899;-75
2023/02/21 05:40:28;;;;;;;;;;;17.30;50.50;;;;;;10118743;28;798;-76
2023/02/21 05:45:23;;;;;;;;;;;17.30;50.60;;;;;;10117917;28;1299;-75
2023/02/21 05:50:18;;;;;;;;;;;17.30;50.60;;;;;;10118749;28;878;-79
2023/02/21 05:55:14;;;;;;;;;;;17.30;50.60;;;;;;10118338;28;1911;-79
2023/02/21 06:00:09;;;;;;;;;;;17.30;50.50;;;;;;10118267;28;879;-79
2023/02/21 06:05:04;;;;;;;;;;;17.30;50.50;;;;;;10117603;28;852;-80
2023/02/21 06:10:00;;;;;;;;;;;17.30;50.50;;;;;;10117925;28;966;-75
2023/02/21 06:14:55;;;;;;;;;;;17.30;50.50;;;;;;10116655;28;1902;-78
2023/02/21 06:19:50;;;;;;;;;;;17.30;50.50;;;;;;10123718;28;788;-78
2023/02/21 06:24:46;;;;;;;;;;;17.30;50.50;;;;;;10123970;28;838;-87
2023/02/21 06:29:41;;;;;;;;;;;17.30;50.50;;;;;;10124512;28;810;-78
2023/02/21 06:34:37;;;;;;;;;;;17.30;50.40;;;;;;10123562;28;1951;-78
2023/02/21 06:39:32;;;;;;;;;;;17.30;50.40;;;;;;10124015;28;818;-78
2023/02/21 06:44:27;;;;;;;;;;;17.30;50.60;;;;;;10123831;28;1173;-79
2023/02/21 06:49:23;;;;;;;;;;;17.30;50.50;;;;;;10123129;28;794;-78
2023/02/21 06:54:18;;;;;;;;;;;17.30;50.40;;;;;;10123684;28;1914;-78
2023/02/21 06:59:14;;;;;;;;;;;17.30;50.40;;;;;;10122754;28;961;-85
2023/02/21 07:04:09;;;;;;;;;;;17.30;50.50;;;;;;10122083;28;790;-78
2023/02/21 07:09:05;;;;;;;;;;;17.30;50.40;;;;;;10122549;28;756;-79
2023/02/21 07:14:00;;;;;;;;;;;17.30;50.50;;;;;;10122235;28;1903;-78
2023/02/21 07:18:56;;;;;;;;;;;17.30;50.60;;;;;;10121630;28;811;-78
2023/02/21 07:23:51;;;;;;;;;;;17.20;50.60;;;;;;10122032;28;893;-78
2023/02/21 07:28:46;;;;;;;;;;;17.20;50.70;;;;;;10121721;28;881;-78
2023/02/21 07:33:42;;;;;;;;;;;17.40;50.80;;;;;;10122183;28;1962;-77
2023/02/21 07:38:37;;;;;;;;;;;17.50;50.90;;;;;;10121625;28;779;-78
2023/02/21 07:43:33;;;;;;;;;;;17.60;51.00;;;;;;10120990;28;1093;-77
2023/02/21 07:48:28;;;;;;;;;;;17.60;51.00;;;;;;10121876;28;802;-78
2023/02/21 07:53:23;;;;;;;;;;;17.60;50.80;;;;;;10121182;28;1964;-78
2023/02/21 07:58:19;;;;;;;;;;;17.60;50.80;;;;;;10121133;28;885;-78
2023/02/21 08:03:14;;;;;;;;;;;17.70;50.70;;;;;;10120318;28;987;-78
2023/02/21 08:08:09;;;;;;;;;;;17.70;50.70;;;;;;10120109;28;985;-74
2023/02/21 08:13:05;;;;;;;;;;;17.70;50.70;;;;;;10121149;28;1966;-75
2023/02/21 08:18:00;;;;;;;;;;;17.60;50.70;;;;;;10119826;28;957;-79
2023/02/21 08:22:55;;;;;;;;;;;17.70;50.70;;;;;;10119818;28;1003;-79
2023/02/21 08:27:54;;;;;;;;;;;17.70;50.70;;;;;;10120766;28;788;-79
2023/02/21 08:32:50;;;;;;;;;;;17.70;50.80;;;;;;10119827;28;1959;-77
2023/02/21 08:37:45;;;;;;;;;;;17.80;51.00;;;;;;10119789;28;969;-80
2023/02/21 08:42:40;;;;;;;;;;;17.70;51.10;;;;;;10118691;28;1346;-79
2023/02/21 08:47:36;;;;;;;;;;;17.80;51.60;;;;;;10120168;28;822;-81
2023/02/21 08:52:31;;;;;;;;;;;17.80;51.70;;;;;;10119933;28;1919;-81
2023/02/21 08:57:26;;;;;;;;;;;17.80;51.80;;;;;;10135393;28;1915;-80
2023/02/21 09:02:24;;;;;;;;;;;17.80;51.80;;;;;;10119098;28;774;-79
2023/02/21 09:07:19;;;;;;;;;;;17.80;51.80;;;;;;10118964;28;893;-78
2023/02/21 09:12:14;;;;;;;;;;;17.80;52.20;;;;;;10119486;28;937;-75
2023/02/21 09:17:10;;;;;;;;;;;17.80;51.60;;;;;;10119311;28;1895;-75
2023/02/21 09:22:07;;;;;;;;;;;17.80;51.50;;;;;;10119239;28;865;-76
2023/02/21 09:27:03;;;;;;;;;;;17.80;51.30;;;;;;10117965;28;854;-80
2023/02/21 09:31:58;;;;;;;;;;;17.80;51.20;;;;;;10118387;28;810;-80
2023/02/21 09:36:53;;;;;;;;;;;17.80;51.30;;;;;;10118859;28;1899;-79
2023/02/21 09:41:50;;;;;;;;;;;17.80;51.60;;;;;;10118487;28;1224;-79
2023/02/21 09:46:46;;;;;;;;;;;17.90;52.20;;;;;;10118059;28;830;-76
2023/02/21 09:51:42;;;;;;;;;;;17.80;52.40;;;;;;10120120;28;895;-78
2023/02/21 09:56:38;;;;;;;;;;;17.80;52.60;;;;;;10125418;28;1918;-78
2023/02/21 10:01:33;;;;;;;;;;;17.70;52.70;;;;;;10124018;28;1000;-80
2023/02/21 10:06:28;;;;;;;;;;;17.70;52.70;;;;;;10124341;28;870;-78
2023/02/21 10:11:24;;;;;;;;;;;17.70;52.90;;;;;;10124905;28;826;-79
2023/02/21 10:16:19;;;;;;;;;;;17.80;52.80;;;;;;10124710;28;1910;-79
2023/02/21 10:21:16;;;;;;;;;;;17.80;52.80;;;;;;10124057;28;785;-79
2023/02/21 10:26:11;;;;;;;;;;;17.80;52.90;;;;;;10123899;28;916;-78
2023/02/21 10:31:07;;;;;;;;;;;17.80;52.80;;;;;;10124313;28;928;-79
2023/02/21 10:36:02;;;;;;;;;;;17.70;52.70;;;;;;10122952;28;1906;-78
2023/02/21 10:40:58;;;;;;;;;;;17.70;52.60;;;;;;10123827;28;1348;-77
2023/02/21 10:45:53;;;;;;;;;;;17.70;52.50;;;;;;10124539;28;841;-77
2023/02/21 10:50:49;;;;;;;;;;;17.70;52.60;;;;;;10123095;28;938;-83
2023/02/21 10:55:46;;;;;;;;;;;17.60;52.80;;;;;;10122940;28;1979;-82
2023/02/21 11:00:46;;;;;;;;;;;17.50;52.70;;;;;;10122763;28;892;-82
2023/02/21 11:05:41;;;;;;;;;;;17.50;52.70;;;;;;10121512;28;973;-84
2023/02/21 11:10:39;;;;;;;;;;;17.40;52.60;;;;;;10122545;28;793;-83
2023/02/21 11:15:34;;;;;;;;;;;17.40;52.50;;;;;;10122874;28;1915;-82
2023/02/21 11:20:30;;;;;;;;;;;17.40;52.40;;;;;;10122226;28;850;-84
2023/02/21 11:25:25;;;;;;;;;;;17.40;52.40;;;;;;10122668;28;806;-83
2023/02/21 11:30:20;;;;;;;;;;;17.40;52.30;;;;;;10121464;28;881;-80
2023/02/21 11:35:16;;;;;;;;;;;17.40;52.30;;;;;;10121712;28;1907;-83
2023/02/21 11:40:12;;;;;;;;;;;17.40;52.20;;;;;;10121600;28;1089;-82
2023/02/21 11:45:07;;;;;;;;;;;17.40;52.10;;;;;;10122678;28;1491;-82
2023/02/21 11:50:03;;;;;;;;;;;17.40;52.10;;;;;;10121305;28;760;-83
2023/02/21 11:54:58;;;;;;;;;;;17.40;52.00;;;;;;10121331;28;1980;-82
2023/02/21 11:59:55;;;;;;;;;;;17.40;52.00;;;;;;10121155;28;781;-83
2023/02/21 12:04:50;;;;;;;;;;;17.40;52.00;;;;;;10121408;28;880;-82
2023/02/21 12:09:46;;;;;;;;;;;17.40;52.00;;;;;;10120818;28;887;-77
2023/02/21 12:14:41;;;;;;;;;;;17.40;52.00;;;;;;10120354;28;1907;-85
2023/02/21 12:19:37;;;;;;;;;;;17.40;51.80;;;;;;10120505;28;783;-85
2023/02/21 12:24:32;;;;;;;;;;;17.40;51.80;;;;;;10120966;28;914;-84
2023/02/21 12:29:27;;;;;;;;;;;17.40;51.80;;;;;;10120143;28;897;-84
2023/02/21 12:34:23;;;;;;;;;;;17.40;51.80;;;;;;10119856;28;1891;-89
2023/02/21 12:39:21;;;;;;;;;;;17.50;51.80;;;;;;10120455;28;813;-86
2023/02/21 12:44:16;;;;;;;;;;;17.40;51.80;;;;;;10119420;28;1248;-84
2023/02/21 12:49:12;;;;;;;;;;;17.50;51.80;;;;;;10119113;28;936;-84
2023/02/21 12:54:07;;;;;;;;;;;17.50;51.70;;;;;;10119331;28;1914;-83
2023/02/21 12:59:03;;;;;;;;;;;17.50;51.60;;;;;;10119330;28;845;-85
2023/02/21 13:03:58;;;;;;;;;;;17.50;51.60;;;;;;10119776;28;842;-85
2023/02/21 13:08:54;;;;;;;;;;;17.50;51.70;;;;;;10119722;28;817;-82
2023/02/21 13:13:49;;;;;;;;;;;17.50;51.60;;;;;;10119578;28;1903;-86
2023/02/21 13:18:44;;;;;;;;;;;17.50;51.60;;;;;;10119476;28;817;-82
2023/02/21 13:23:48;;;;;;;;;;;17.50;51.60;;;;;;10118673;28;766;-86
2023/02/21 13:28:45;;;;;;;;;;;17.50;51.70;;;;;;10123652;28;873;-87
2023/02/21 13:33:43;;;;;;;;;;;17.50;51.60;;;;;;10125315;28;1903;-87
2023/02/21 13:38:39;;;;;;;;;;;17.50;51.60;;;;;;10125320;28;828;-79
2023/02/21 13:43:34;;;;;;;;;;;17.50;51.70;;;;;;10139657;28;1412;-79
2023/02/21 13:48:29;;;;;;;;;;;17.40;51.60;;;;;;10125086;28;760;-81
2023/02/21 13:53:25;;;;;;;;;;;17.50;51.80;;;;;;10125377;28;1918;-77
2023/02/21 13:58:21;;;;;;;;;;;17.80;52.60;;;;;;10125497;28;881;-79
2023/02/21 14:03:18;;;;;;;;;;;17.90;53.00;;;;;;10125076;28;920;-80
2023/02/21 14:08:14;;;;;;;;;;;17.90;53.30;;;;;;10124267;28;854;-80
2023/02/21 14:13:09;;;;;;;;;;;17.90;53.30;;;;;;10123968;28;1972;-80
2023/02/21 14:18:04;;;;;;;;;;;17.90;53.10;;;;;;10123346;28;884;-79
2023/02/21 14:23:00;;;;;;;;;;;17.90;53.20;;;;;;10123776;28;774;-79
2023/02/21 14:27:55;;;;;;;;;;;17.90;53.10;;;;;;10123598;28;924;-79
2023/02/21 14:32:50;;;;;;;;;;;17.90;53.10;;;;;;10122889;28;1962;-79
2023/02/21 14:37:46;;;;;;;;;;;17.90;53.00;;;;;;10123282;28;886;-79
2023/02/21 14:42:41;;;;;;;;;;;17.90;52.90;;;;;;10123807;28;1188;-80
2023/02/21 14:47:36;;;;;;;;;;;17.90;53.00;;;;;;10123027;28;762;-80
2023/02/21 14:52:32;;;;;;;;;;;18.00;53.00;;;;;;10122778;28;786;-79
2023/02/21 14:57:28;;;;;;;;;;;18.00;53.00;;;;;;10122801;28;2012;-80
2023/02/21 15:02:24;;;;;;;;;;;17.90;52.80;;;;;;10122123;28;998;-80
2023/02/21 15:07:19;;;;;;;;;;;18.00;52.90;;;;;;10122681;28;809;-80
2023/02/21 15:12:14;;;;;;;;;;;18.00;52.90;;;;;;10123012;28;918;-80
2023/02/21 15:17:10;;;;;;;;;;;18.00;52.90;;;;;;10122961;28;1964;-80
2023/02/21 15:22:05;;;;;;;;;;;18.00;53.00;;;;;;10122379;28;913;-80
2023/02/21 15:27:00;;;;;;;;;;;18.00;52.90;;;;;;10121518;28;897;-80
2023/02/21 15:31:57;;;;;;;;;;;18.00;52.80;;;;;;10122671;28;830;-80
2023/02/21 15:36:52;;;;;;;;;;;18.00;52.90;;;;;;10121664;28;1907;-80
2023/02/21 15:41:48;;;;;;;;;;;18.00;52.80;;;;;;10121858;28;1176;-80
2023/02/21 15:46:43;;;;;;;;;;;18.00;52.80;;;;;;10122201;28;854;-80
2023/02/21 15:51:39;;;;;;;;;;;18.00;52.80;;;;;;10120738;28;802;-80
2023/02/21 15:56:34;;;;;;;;;;;18.00;52.70;;;;;;10121069;28;1919;-80
2023/02/21 16:01:29;;;;;;;;;;;18.00;52.70;;;;;;10121072;28;814;-80
2023/02/21 16:06:26;;;;;;;;;;;18.00;52.70;;;;;;10120903;28;826;-80
2023/02/21 16:11:22;;;;;;;;;;;18.00;52.70;;;;;;10120660;28;985;-80
2023/02/21 16:16:17;;;;;;;;;;;18.00;52.60;;;;;;10120667;28;1910;-80
2023/02/21 16:21:12;;;;;;;;;;;18.00;52.60;;;;;;10120441;28;805;-80
2023/02/21 16:26:08;;;;;;;;;;;18.00;52.70;;;;;;10120267;28;865;-80
2023/02/21 16:31:04;;;;;;;;;;;18.00;52.80;;;;;;10120022;28;874;-80
2023/02/21 16:35:59;;;;;;;;;;;18.00;52.80;;;;;;10119885;28;1926;-80
2023/02/21 16:40:54;;;;;;;;;;;18.00;52.80;;;;;;10119861;28;1297;-80
2023/02/21 16:45:50;;;;;;;;;;;17.90;53.00;;;;;;10120510;28;825;-79
2023/02/21 16:50:46;;;;;;;;;;;17.90;53.10;;;;;;10119566;28;794;-80
2023/02/21 16:55:41;;;;;;;;;;;18.00;53.30;;;;;;10119252;28;1980;-80
2023/02/21 17:00:36;;;;;;;;;;;18.00;53.40;;;;;;10118204;28;933;-80
2023/02/21 17:05:34;;;;;;;;;;;18.00;53.30;;;;;;10119173;28;863;-80
2023/02/21 17:10:31;;;;;;;;;;;18.00;53.30;;;;;;10119017;28;851;-80
2023/02/21 17:15:27;;;;;;;;;;;17.90;53.20;;;;;;10119431;28;1914;-80
2023/02/21 17:20:22;;;;;;;;;;;18.00;53.10;;;;;;10118701;28;952;-80
2023/02/21 17:25:18;;;;;;;;;;;18.00;53.00;;;;;;10118642;28;896;-80
2023/02/21 17:30:13;;;;;;;;;;;18.00;53.00;;;;;;10119135;28;841;-80
2023/02/21 17:35:09;;;;;;;;;;;18.00;52.90;;;;;;10118261;28;1961;-83
2023/02/21 17:40:04;;;;;;;;;;;18.00;52.90;;;;;;10118290;28;977;-80
2023/02/21 17:45:01;;;;;;;;;;;18.00;52.90;;;;;;10118688;28;1186;-78
2023/02/21 17:49:58;;;;;;;;;;;17.90;53.10;;;;;;10118821;28;811;-80
2023/02/21 17:54:54;;;;;;;;;;;17.90;53.20;;;;;;10118430;28;1918;-79
2023/02/21 17:59:49;;;;;;;;;;;17.80;53.30;;;;;;10117771;28;904;-80
2023/02/21 18:04:47;;;;;;;;;;;17.70;53.20;;;;;;10117764;28;875;-81
2023/02/21 18:09:42;;;;;;;;;;;17.70;53.20;;;;;;10117580;28;901;-79
2023/02/21 18:14:38;;;;;;;;;;;17.70;53.20;;;;;;10122294;28;1915;-77
2023/02/21 18:19:33;;;;;;;;;;;17.70;53.10;;;;;;10124756;28;896;-78
2023/02/21 18:24:29;;;;;;;;;;;17.70;53.10;;;;;;10124645;28;873;-77
2023/02/21 18:29:24;;;;;;;;;;;17.70;53.10;;;;;;10123857;28;825;-77
2023/02/21 18:34:19;;;;;;;;;;;17.70;53.00;;;;;;10123647;28;1915;-77
2023/02/21 18:39:15;;;;;;;;;;;17.70;53.50;;;;;;10123575;28;731;-76
2023/02/21 18:44:10;;;;;;;;;;;17.70;53.50;;;;;;10123987;28;1271;-77
2023/02/21 18:49:05;;;;;;;;;;;17.60;52.80;;;;;;10122700;28;892;-77
2023/02/21 18:54:01;;;;;;;;;;;17.70;52.90;;;;;;10123637;28;1918;-78
2023/02/21 18:58:56;;;;;;;;;;;17.70;52.80;;;;;;10123545;28;861;-78
2023/02/21 19:03:52;;;;;;;;;;;17.60;52.80;;;;;;10122826;28;865;-77
2023/02/21 19:08:49;;;;;;;;;;;17.60;52.70;;;;;;10123226;28;874;-78
2023/02/21 19:13:46;;;;;;;;;;;17.60;52.70;;;;;;10122387;28;1971;-78
2023/02/21 19:18:41;;;;;;;;;;;17.60;52.60;;;;;;10122988;28;845;-80
2023/02/21 19:23:37;;;;;;;;;;;17.60;52.60;;;;;;10121238;28;778;-81
2023/02/21 19:28:32;;;;;;;;;;;17.70;52.60;;;;;;10121996;28;846;-80
2023/02/21 19:33:28;;;;;;;;;;;17.70;52.70;;;;;;10121860;28;1974;-73
2023/02/21 19:38:23;;;;;;;;;;;17.70;52.80;;;;;;10122367;28;842;-73
2023/02/21 19:43:18;;;;;;;;;;;17.70;52.70;;;;;;10121094;28;1350;-73
2023/02/21 19:48:14;;;;;;;;;;;17.80;52.80;;;;;;10121496;28;955;-73
2023/02/21 19:53:10;;;;;;;;;;;17.80;52.80;;;;;;10121600;28;1922;-71
2023/02/21 19:58:07;;;;;;;;;;;17.70;52.80;;;;;;10121802;28;931;-73
2023/02/21 20:03:02;;;;;;;;;;;17.70;52.90;;;;;;10121021;28;797;-73
2023/02/21 20:07:58;;;;;;;;;;;17.60;52.80;;;;;;10121462;28;856;-74
2023/02/21 20:12:53;;;;;;;;;;;17.60;52.80;;;;;;10120566;28;1985;-74
2023/02/21 20:17:50;;;;;;;;;;;17.60;52.80;;;;;;10120605;28;846;-74
2023/02/21 20:22:46;;;;;;;;;;;17.60;52.80;;;;;;10120945;28;1067;-74
2023/02/21 20:27:41;;;;;;;;;;;17.60;52.60;;;;;;10120862;28;813;-74
2023/02/21 20:32:37;;;;;;;;;;;17.70;52.60;;;;;;10120687;28;807;-74
2023/02/21 20:37:32;;;;;;;;;;;17.70;52.50;;;;;;10120291;28;1961;-75
2023/02/21 20:42:28;;;;;;;;;;;17.60;52.50;;;;;;10119246;28;1314;-79
2023/02/21 20:47:23;;;;;;;;;;;17.60;52.60;;;;;;10119653;28;888;-78
2023/02/21 20:52:18;;;;;;;;;;;17.60;52.60;;;;;;10119613;28;915;-77
2023/02/21 20:57:14;;;;;;;;;;;17.60;52.60;;;;;;10119368;28;1910;-74
2023/02/21 21:02:09;;;;;;;;;;;17.60;52.50;;;;;;10119839;28;936;-73
2023/02/21 21:07:05;;;;;;;;;;;17.60;52.50;;;;;;10119206;28;881;-73
2023/02/21 21:12:01;;;;;;;;;;;17.60;52.50;;;;;;10118865;28;883;-73
2023/02/21 21:16:56;;;;;;;;;;;17.60;52.40;;;;;;10118756;28;1957;-73
2023/02/21 21:21:52;;;;;;;;;;;17.60;52.40;;;;;;10118774;28;867;-73
2023/02/21 21:26:50;;;;;;;;;;;17.60;52.50;;;;;;10118816;28;860;-73
2023/02/21 21:31:46;;;;;;;;;;;17.60;52.40;;;;;;10119113;28;855;-73
2023/02/21 21:36:41;;;;;;;;;;;17.60;52.40;;;;;;10118957;28;1969;-73
2023/02/21 21:41:41;;;;;;;;;;;17.60;52.30;;;;;;10118374;28;1391;-73
2023/02/21 21:46:38;;;;;;;;;;;17.60;52.20;;;;;;10118284;28;1137;-73
2023/02/21 21:51:33;;;;;;;;;;;17.60;52.30;;;;;;10125697;28;898;-72
2023/02/21 21:56:28;;;;;;;;;;;17.60;52.30;;;;;;10124865;28;1910;-73
2023/02/21 22:01:25;;;;;;;;;;;17.60;52.30;;;;;;10124978;28;961;-73
2023/02/21 22:06:21;;;;;;;;;;;17.60;52.30;;;;;;10124926;28;861;-73
2023/02/21 22:11:16;;;;;;;;;;;17.60;52.20;;;;;;10125128;28;876;-73
2023/02/21 22:16:11;;;;;;;;;;;17.60;52.10;;;;;;10124258;28;1967;-73
2023/02/21 22:21:12;;;;;;;;;;;17.60;52.10;;;;;;10124107;28;863;-72
2023/02/21 22:26:09;;;;;;;;;;;17.60;52.20;;;;;;10124235;28;794;-74
2023/02/21 22:31:04;;;;;;;;;;;17.60;52.20;;;;;;10123792;28;848;-72
2023/02/21 22:36:01;;;;;;;;;;;17.60;52.20;;;;;;10123652;28;1898;-72
2023/02/21 22:40:59;;;;;;;;;;;17.60;52.20;;;;;;10123645;28;1278;-79
2023/02/21 22:45:56;;;;;;;;;;;17.60;52.20;;;;;;10120363;28;1189;-78
2023/02/21 22:50:54;;;;;;;;;;;17.60;52.20;;;;;;10085517;28;1144;-79
2023/02/21 22:55:49;;;;;;;;;;;17.60;52.20;;;;;;10083093;28;1906;-79
2023/02/21 23:00:45;;;;;;;;;;;17.60;52.20;;;;;;10082509;28;822;-79
2023/02/21 23:05:42;;;;;;;;;;;17.60;52.20;;;;;;10083536;28;877;-79
2023/02/21 23:10:40;;;;;;;;;;;17.50;52.10;;;;;;10083177;28;810;-79
2023/02/21 23:15:36;;;;;;;;;;;17.60;52.10;;;;;;10083318;28;1907;-79
2023/02/21 23:20:32;;;;;;;;;;;17.60;52.10;;;;;;10083476;28;841;-78
2023/02/21 23:25:33;;;;;;;;;;;17.60;52.10;;;;;;10082443;28;836;-78
2023/02/21 23:30:35;;;;;;;;;;;17.50;52.10;;;;;;10083700;28;845;-79
2023/02/21 23:35:31;;;;;;;;;;;17.60;52.20;;;;;;10082052;28;1910;-77
2023/02/21 23:40:28;;;;;;;;;;;17.60;52.20;;;;;;10082534;28;1004;-79
2023/02/21 23:45:24;;;;;;;;;;;17.60;52.20;;;;;;10081634;28;973;-81
2023/02/21 23:50:22;;;;;;;;;;;17.60;52.20;;;;;;10082340;28;888;-82
2023/02/21 23:55:17;;;;;;;;;;;17.60;52.10;;;;;;10081935;28;1990;-76
